createdAt,value
2022-08-20T00:01:44.179Z,19.36
2022-08-20T00:04:11.909Z,19.38
2022-08-20T00:06:40.503Z,19.14
2022-08-20T00:09:07.940Z,19.07
2022-08-20T00:11:35.920Z,19.01
2022-08-20T00:14:05.964Z,19.25
2022-08-20T00:16:36.807Z,19.44
2022-08-20T00:19:07.752Z,19.41
2022-08-20T00:21:36.510Z,19.28
2022-08-20T00:24:05.495Z,18.95
2022-08-20T00:26:33.132Z,19.11
2022-08-20T00:29:00.834Z,18.83
2022-08-20T00:31:28.931Z,18.81
2022-08-20T00:33:56.241Z,18.99
2022-08-20T00:36:32.340Z,18.98
2022-08-20T00:39:01.363Z,18.96
2022-08-20T00:41:29.711Z,18.87
2022-08-20T00:44:06.297Z,18.88
2022-08-20T00:46:34.922Z,18.90
2022-08-20T00:49:03.949Z,19.06
2022-08-20T00:51:38.369Z,18.83
2022-08-20T00:54:11.625Z,18.76
2022-08-20T00:56:39.709Z,18.80
2022-08-20T00:59:12.501Z,18.91
2022-08-20T01:01:55.473Z,18.72
2022-08-20T01:04:26.531Z,18.78
2022-08-20T01:06:54.406Z,18.76
2022-08-20T01:09:49.945Z,18.75
2022-08-20T01:12:13.817Z,18.77
2022-08-20T01:14:46.654Z,18.73
2022-08-20T01:17:22.435Z,18.74
2022-08-20T01:20:08.584Z,18.57
2022-08-20T01:23:04.417Z,18.60
2022-08-20T01:26:00.481Z,18.70
2022-08-20T01:28:39.052Z,18.52
2022-08-20T01:31:08.700Z,18.72
2022-08-20T01:33:36.792Z,18.71
2022-08-20T01:36:06.547Z,18.65
2022-08-20T01:38:34.993Z,18.67
2022-08-20T01:41:33.882Z,18.50
2022-08-20T01:44:01.451Z,18.23
2022-08-20T01:46:34.985Z,18.14
2022-08-20T01:49:15.632Z,18.27
2022-08-20T01:51:49.665Z,18.12
2022-08-20T01:54:17.576Z,18.10
2022-08-20T01:56:57.167Z,18.35
2022-08-20T01:59:25.474Z,18.36
2022-08-20T02:01:53.329Z,18.26
2022-08-20T02:04:21.571Z,18.40
2022-08-20T02:06:57.923Z,18.17
2022-08-20T02:09:29.721Z,18.33
2022-08-20T02:11:59.226Z,18.37
2022-08-20T02:14:27.752Z,18.25
2022-08-20T02:16:58.718Z,17.75
2022-08-20T02:19:51.924Z,17.73
2022-08-20T02:22:31.913Z,17.75
2022-08-20T02:24:59.195Z,18.06
2022-08-20T02:27:26.825Z,17.86
2022-08-20T02:29:55.075Z,17.98
2022-08-20T02:32:24.927Z,18.14
2022-08-20T02:35:07.349Z,18.21
2022-08-20T02:37:36.691Z,18.07
2022-08-20T02:40:08.279Z,18.10
2022-08-20T02:42:39.438Z,18.05
2022-08-20T02:45:08.618Z,17.97
2022-08-20T02:47:41.812Z,17.84
2022-08-20T02:50:14.254Z,17.72
2022-08-20T02:52:42.742Z,17.70
2022-08-20T02:55:27.723Z,17.81
2022-08-20T02:57:59.060Z,17.81
2022-08-20T03:00:28.935Z,17.83
2022-08-20T03:03:00.610Z,17.71
2022-08-20T03:05:28.785Z,17.89
2022-08-20T03:07:59.494Z,17.91
2022-08-20T03:10:32.335Z,17.96
2022-08-20T03:13:02.469Z,17.76
2022-08-20T03:15:31.687Z,17.65
2022-08-20T03:17:59.354Z,17.72
2022-08-20T03:20:27.941Z,17.76
2022-08-20T03:22:55.960Z,17.85
2022-08-20T03:25:24.288Z,17.69
2022-08-20T03:27:55.011Z,17.70
2022-08-20T03:30:26.280Z,17.75
2022-08-20T03:32:55.519Z,17.58
2022-08-20T03:35:25.166Z,17.58
2022-08-20T03:37:55.670Z,17.65
2022-08-20T03:40:27.987Z,17.80
2022-08-20T03:42:56.575Z,17.82
2022-08-20T03:45:25.950Z,17.68
2022-08-20T03:47:57.470Z,17.60
2022-08-20T03:50:29.299Z,17.51
2022-08-20T03:52:57.893Z,17.54
2022-08-20T03:55:27.049Z,17.69
2022-08-20T03:57:57.656Z,17.63
2022-08-20T04:00:31.581Z,17.70
2022-08-20T04:03:00.710Z,17.69
2022-08-20T04:05:31.137Z,17.61
2022-08-20T04:08:03.105Z,17.54
2022-08-20T04:10:32.340Z,17.60
2022-08-20T04:13:01.637Z,17.74
2022-08-20T04:15:29.116Z,17.78
2022-08-20T04:17:56.686Z,17.74
2022-08-20T04:20:26.254Z,17.84
2022-08-20T04:23:02.049Z,17.79
2022-08-20T04:25:36.189Z,17.82
2022-08-20T04:28:06.447Z,17.72
2022-08-20T04:30:35.174Z,17.79
2022-08-20T04:33:02.812Z,17.95
2022-08-20T04:35:31.750Z,18.04
2022-08-20T04:38:15.689Z,17.95
2022-08-20T04:40:58.425Z,18.01
2022-08-20T04:43:33.558Z,18.02
2022-08-20T04:46:06.408Z,18.27
2022-08-20T04:48:34.222Z,18.09
2022-08-20T04:51:03.986Z,18.17
2022-08-20T04:53:31.532Z,18.21
2022-08-20T04:56:01.294Z,18.31
2022-08-20T04:58:35.371Z,18.46
2022-08-20T05:01:11.936Z,18.57
2022-08-20T05:03:40.737Z,18.71
2022-08-20T05:06:11.973Z,18.76
2022-08-20T05:08:40.729Z,18.84
2022-08-20T05:11:32.949Z,18.94
2022-08-20T05:13:59.074Z,18.76
2022-08-20T05:16:26.960Z,18.48
2022-08-20T05:18:54.621Z,18.50
2022-08-20T05:21:22.250Z,18.39
2022-08-20T05:23:49.980Z,18.66
2022-08-20T05:26:20.375Z,18.90
2022-08-20T05:28:58.001Z,19.02
2022-08-20T05:31:33.342Z,19.28
2022-08-20T05:34:10.654Z,19.54
2022-08-20T05:36:47.018Z,19.74
2022-08-20T05:39:20.868Z,19.75
2022-08-20T05:41:52.345Z,19.83
2022-08-20T05:44:19.968Z,19.75
2022-08-20T05:46:48.230Z,19.69
2022-08-20T05:49:22.183Z,19.85
2022-08-20T05:51:51.574Z,20.07
2022-08-20T05:54:19.513Z,20.34
2022-08-20T05:56:46.916Z,20.57
2022-08-20T05:59:14.399Z,20.70
2022-08-20T06:01:43.429Z,20.91
2022-08-20T06:04:32.171Z,21.09
2022-08-20T06:07:05.777Z,21.14
2022-08-20T06:09:35.235Z,21.07
2022-08-20T06:12:06.365Z,21.35
2022-08-20T06:14:34.319Z,21.52
2022-08-20T06:17:22.113Z,21.64
2022-08-20T06:19:50.086Z,21.82
2022-08-20T06:22:22.030Z,22.04
2022-08-20T06:24:53.615Z,22.11
2022-08-20T06:27:21.700Z,22.34
2022-08-20T06:29:50.690Z,22.34
2022-08-20T06:32:28.815Z,22.38
2022-08-20T06:35:06.092Z,22.50
2022-08-20T06:37:37.046Z,22.55
2022-08-20T06:40:13.922Z,22.86
2022-08-20T06:42:48.215Z,23.07
2022-08-20T06:45:26.552Z,23.14
2022-08-20T06:47:57.565Z,23.28
2022-08-20T06:50:43.242Z,23.47
2022-08-20T06:53:18.927Z,23.59
2022-08-20T06:55:50.577Z,24.07
2022-08-20T06:58:32.808Z,24.20
2022-08-20T07:01:09.105Z,23.89
2022-08-20T07:03:55.274Z,23.97
2022-08-20T07:06:28.069Z,23.96
2022-08-20T07:08:57.327Z,24.10
2022-08-20T07:11:28.094Z,24.30
2022-08-20T07:13:58.574Z,24.15
2022-08-20T07:16:27.402Z,24.31
2022-08-20T07:18:55.544Z,24.39
2022-08-20T07:21:23.166Z,24.46
2022-08-20T07:23:50.699Z,24.62
2022-08-20T07:26:18.555Z,24.66
2022-08-20T07:28:50.112Z,24.88
2022-08-20T07:31:38.859Z,25.04
2022-08-20T07:34:11.579Z,25.04
2022-08-20T07:36:39.607Z,25.07
2022-08-20T07:39:07.083Z,25.16
2022-08-20T07:41:35.191Z,25.41
2022-08-20T07:44:02.884Z,25.48
2022-08-20T07:46:31.837Z,25.63
2022-08-20T07:48:59.959Z,25.68
2022-08-20T07:51:27.877Z,25.59
2022-08-20T07:53:55.442Z,25.66
2022-08-20T07:56:24.619Z,25.76
2022-08-20T07:58:55.735Z,25.64
2022-08-20T08:01:26.720Z,25.64
2022-08-20T08:03:54.668Z,25.71
2022-08-20T08:06:28.955Z,25.80
2022-08-20T08:09:07.995Z,25.92
2022-08-20T08:11:38.609Z,25.89
2022-08-20T08:14:09.035Z,25.95
2022-08-20T08:16:38.023Z,26.15
2022-08-20T08:19:09.248Z,26.20
2022-08-20T08:21:36.738Z,26.40
2022-08-20T08:24:04.578Z,26.63
2022-08-20T08:26:32.558Z,26.86
2022-08-20T08:28:59.990Z,26.83
2022-08-20T08:31:27.414Z,26.55
2022-08-20T08:33:55.940Z,26.71
2022-08-20T08:36:23.411Z,26.52
2022-08-20T08:38:51.153Z,26.87
2022-08-20T08:41:50.229Z,26.89
2022-08-20T08:44:25.225Z,26.97
2022-08-20T08:46:57.868Z,27.13
2022-08-20T08:49:38.220Z,27.08
2022-08-20T08:52:16.238Z,27.41
2022-08-20T08:54:48.323Z,27.60
2022-08-20T08:57:16.754Z,27.55
2022-08-20T08:59:58.243Z,27.55
2022-08-20T09:02:35.593Z,27.64
2022-08-20T09:05:16.029Z,27.88
2022-08-20T09:07:48.586Z,28.10
2022-08-20T09:10:20.033Z,28.55
2022-08-20T09:12:52.555Z,28.35
2022-08-20T09:19:00.057Z,28.70
2022-08-20T09:21:28.005Z,28.53
2022-08-20T09:23:55.839Z,28.75
2022-08-20T09:26:23.390Z,28.81
2022-08-20T09:28:57.190Z,28.70
2022-08-20T09:31:24.862Z,28.91
2022-08-20T09:33:53.175Z,28.82
2022-08-20T09:36:29.006Z,28.60
2022-08-20T09:39:03.066Z,29.00
2022-08-20T09:41:33.701Z,29.18
2022-08-20T09:44:02.605Z,29.48
2022-08-20T09:46:30.041Z,29.72
2022-08-20T09:48:57.769Z,29.74
2022-08-20T09:51:35.827Z,29.96
2022-08-20T09:54:06.899Z,29.79
2022-08-20T09:56:35.962Z,29.93
2022-08-20T09:59:03.488Z,30.04
2022-08-20T10:01:31.787Z,30.25
2022-08-20T10:04:00.035Z,30.00
2022-08-20T10:06:27.516Z,30.05
2022-08-20T10:08:55.220Z,30.34
2022-08-20T10:11:22.939Z,30.51
2022-08-20T10:13:50.331Z,30.65
2022-08-20T10:16:17.722Z,30.57
2022-08-20T10:18:45.739Z,30.31
2022-08-20T10:21:13.520Z,30.18
2022-08-20T10:23:41.625Z,30.43
2022-08-20T10:30:14.753Z,30.63
2022-08-20T10:32:45.961Z,30.66
2022-08-20T10:35:13.780Z,30.37
2022-08-20T10:37:41.226Z,30.40
2022-08-20T10:40:09.957Z,30.42
2022-08-20T10:42:42.327Z,30.88
2022-08-20T10:45:16.389Z,30.95
2022-08-20T10:47:45.187Z,31.00
2022-08-20T10:50:16.055Z,30.65
2022-08-20T10:52:43.989Z,30.96
2022-08-20T10:55:11.785Z,31.38
2022-08-20T10:57:40.475Z,31.70
2022-08-20T11:00:10.499Z,31.65
2022-08-20T11:02:38.215Z,31.49
2022-08-20T11:05:07.249Z,31.82
2022-08-20T11:07:50.562Z,31.41
2022-08-20T11:10:29.142Z,31.09
2022-08-20T11:12:57.120Z,31.45
2022-08-20T11:15:25.385Z,31.48
2022-08-20T11:17:53.127Z,31.65
2022-08-20T11:20:23.783Z,31.54
2022-08-20T11:22:51.969Z,32.07
2022-08-20T11:25:20.224Z,31.43
2022-08-20T11:27:49.669Z,31.41
2022-08-20T11:30:33.536Z,31.60
2022-08-20T11:33:01.414Z,31.10
2022-08-20T11:35:49.007Z,31.12
2022-08-20T11:38:19.191Z,31.18
2022-08-20T11:40:47.144Z,30.90
2022-08-20T11:43:16.962Z,31.09
2022-08-20T11:45:48.559Z,31.06
2022-08-20T11:48:17.034Z,30.87
2022-08-20T11:50:45.199Z,30.55
2022-08-20T11:53:12.602Z,30.93
2022-08-20T11:55:40.625Z,31.17
2022-08-20T11:58:08.209Z,31.24
2022-08-20T12:00:37.246Z,30.60
2022-08-20T12:03:09.470Z,30.35
2022-08-20T12:05:39.844Z,29.81
2022-08-20T12:08:08.709Z,29.62
2022-08-20T12:10:37.728Z,28.98
2022-08-20T12:13:07.385Z,28.86
2022-08-20T12:15:36.950Z,28.64
2022-08-20T12:18:08.531Z,28.52
2022-08-20T12:20:37.491Z,28.43
2022-08-20T12:23:05.521Z,28.39
2022-08-20T12:25:33.965Z,28.34
2022-08-20T12:28:02.055Z,28.15
2022-08-20T12:30:29.404Z,28.15
2022-08-20T12:32:56.859Z,28.02
2022-08-20T12:35:25.121Z,28.01
2022-08-20T12:37:53.150Z,28.06
2022-08-20T12:40:32.156Z,28.19
2022-08-20T12:43:02.625Z,28.34
2022-08-20T12:45:30.837Z,28.92
2022-08-20T12:48:05.633Z,28.93
2022-08-20T12:50:35.084Z,29.38
2022-08-20T12:53:02.845Z,29.25
2022-08-20T12:55:31.153Z,29.13
2022-08-20T12:58:01.450Z,28.12
2022-08-20T13:00:35.840Z,28.13
2022-08-20T13:03:06.267Z,28.05
2022-08-20T13:05:35.432Z,27.80
2022-08-20T13:08:08.384Z,27.86
2022-08-20T13:10:38.187Z,27.80
2022-08-20T13:13:05.897Z,27.47
2022-08-20T13:15:33.635Z,27.58
2022-08-20T13:18:03.031Z,27.41
2022-08-20T13:20:31.671Z,27.12
2022-08-20T13:23:04.850Z,26.95
2022-08-20T13:25:33.747Z,27.12
2022-08-20T13:28:04.649Z,27.04
2022-08-20T13:30:34.340Z,27.01
2022-08-20T13:33:02.774Z,27.06
2022-08-20T13:35:30.346Z,26.80
2022-08-20T13:37:57.790Z,26.79
2022-08-20T13:40:26.126Z,26.86
2022-08-20T13:42:53.819Z,27.03
2022-08-20T13:45:21.294Z,26.93
2022-08-20T13:47:53.460Z,26.89
2022-08-20T13:57:58.187Z,25.41
2022-08-20T14:00:32.339Z,25.41
2022-08-20T14:03:01.848Z,24.78
2022-08-20T14:05:30.512Z,24.55
2022-08-20T14:08:08.243Z,24.46
2022-08-20T14:10:36.775Z,24.18
2022-08-20T14:13:06.867Z,23.71
2022-08-20T14:15:36.089Z,23.88
2022-08-20T14:18:05.363Z,23.92
2022-08-20T14:20:33.803Z,24.11
2022-08-20T14:23:02.380Z,24.09
2022-08-20T14:25:32.329Z,23.99
2022-08-20T14:28:10.023Z,23.90
2022-08-20T14:30:40.097Z,24.24
2022-08-20T14:33:07.500Z,23.97
2022-08-20T14:35:34.874Z,24.08
2022-08-20T14:38:03.322Z,23.63
2022-08-20T14:40:34.296Z,23.63
2022-08-20T14:43:01.946Z,23.57
2022-08-20T14:45:29.710Z,23.54
2022-08-20T14:47:58.755Z,23.82
2022-08-20T14:50:32.644Z,23.58
2022-08-20T14:53:01.486Z,23.23
2022-08-20T14:55:32.466Z,23.08
2022-08-20T14:58:00.265Z,23.25
2022-08-20T15:00:31.356Z,23.14
2022-08-20T15:02:59.143Z,23.01
2022-08-20T15:05:29.738Z,23.11
2022-08-20T15:07:57.701Z,23.22
2022-08-20T15:10:30.673Z,23.27
2022-08-20T15:12:59.289Z,23.42
2022-08-20T15:15:28.214Z,23.54
2022-08-20T15:18:00.421Z,23.42
2022-08-20T15:20:31.267Z,23.64
2022-08-20T15:22:59.411Z,23.59
2022-08-20T15:25:36.832Z,23.72
2022-08-20T15:28:08.933Z,23.70
2022-08-20T15:30:38.946Z,23.67
2022-08-20T15:33:07.495Z,23.66
2022-08-20T15:35:34.985Z,23.38
2022-08-20T15:38:03.141Z,23.01
2022-08-20T15:40:31.920Z,23.08
2022-08-20T15:43:01.503Z,23.15
2022-08-20T15:45:29.394Z,23.34
2022-08-20T15:48:01.934Z,23.02
2022-08-20T15:51:00.531Z,23.19
2022-08-20T15:53:36.122Z,23.27
2022-08-20T15:56:22.696Z,23.05
2022-08-20T15:58:59.153Z,23.19
2022-08-20T16:01:45.397Z,23.12
2022-08-20T16:04:35.223Z,23.26
2022-08-20T16:07:10.619Z,22.28
2022-08-20T16:10:02.021Z,22.86
2022-08-20T16:12:35.153Z,23.17
2022-08-20T16:15:25.878Z,22.60
2022-08-20T16:18:03.145Z,21.98
2022-08-20T16:20:38.969Z,22.11
2022-08-20T16:23:07.968Z,22.44
2022-08-20T16:25:59.024Z,22.67
2022-08-20T16:28:32.931Z,22.50
2022-08-20T16:31:14.102Z,22.45
2022-08-20T16:34:33.520Z,22.51
2022-08-20T16:37:41.725Z,22.50
2022-08-20T16:40:39.213Z,22.36
2022-08-20T16:43:54.825Z,22.32
2022-08-20T16:46:27.195Z,21.91
2022-08-20T16:49:00.354Z,21.94
2022-08-20T16:51:33.889Z,21.82
2022-08-20T16:54:01.662Z,21.56
2022-08-20T16:56:49.615Z,21.54
2022-08-20T16:59:26.517Z,21.80
2022-08-20T17:02:21.220Z,22.00
2022-08-20T17:04:59.341Z,22.06
2022-08-20T17:07:43.326Z,21.71
2022-08-20T17:10:29.919Z,21.78
2022-08-20T17:13:19.688Z,22.01
2022-08-20T17:15:56.238Z,21.96
2022-08-20T17:18:26.689Z,22.14
2022-08-20T17:21:00.974Z,21.97
2022-08-20T17:23:30.832Z,21.74
2022-08-20T17:26:02.869Z,21.82
2022-08-20T17:28:35.214Z,21.80
2022-08-20T17:31:03.658Z,21.53
2022-08-20T17:33:39.074Z,21.49
2022-08-20T17:36:22.671Z,21.71
2022-08-20T17:39:01.095Z,21.92
2022-08-20T17:41:33.284Z,21.99
2022-08-20T17:44:08.327Z,21.94
2022-08-20T17:46:44.163Z,21.65
2022-08-20T17:49:18.129Z,21.89
2022-08-20T17:51:52.887Z,21.66
2022-08-20T17:54:32.862Z,21.36
2022-08-20T17:57:12.921Z,21.03
2022-08-20T18:00:02.347Z,21.16
2022-08-20T18:02:34.255Z,21.28
2022-08-20T18:05:02.993Z,21.25
2022-08-20T18:08:11.861Z,21.04
2022-08-20T18:10:59.489Z,21.13
2022-08-20T18:14:10.650Z,21.04
2022-08-20T18:17:16.352Z,21.11
2022-08-20T18:20:05.555Z,21.19
2022-08-20T18:22:50.249Z,21.01
2022-08-20T18:25:36.999Z,20.84
2022-08-20T18:28:23.392Z,20.87
2022-08-20T18:31:00.579Z,20.84
2022-08-20T18:33:30.220Z,20.79
2022-08-20T18:36:28.483Z,20.98
2022-08-20T18:38:59.207Z,20.93
2022-08-20T18:41:30.385Z,20.96
2022-08-20T18:44:27.081Z,21.02
2022-08-20T18:46:59.187Z,21.09
2022-08-20T18:49:39.213Z,21.14
2022-08-20T18:52:11.439Z,21.14
2022-08-20T18:54:43.320Z,21.16
2022-08-20T18:57:23.053Z,21.09
2022-08-20T19:00:14.079Z,21.02
2022-08-20T19:03:00.778Z,21.15
2022-08-20T19:06:08.970Z,21.14
2022-08-20T19:08:40.695Z,21.10
2022-08-20T19:11:28.687Z,21.13
2022-08-20T19:14:33.825Z,21.09
2022-08-20T19:17:11.566Z,20.99
2022-08-20T19:19:39.160Z,20.73
2022-08-20T19:22:07.263Z,20.89
2022-08-20T19:24:35.740Z,20.94
2022-08-20T19:27:06.951Z,21.14
2022-08-20T19:29:39.861Z,21.00
2022-08-20T19:32:09.884Z,20.92
2022-08-20T19:34:38.373Z,20.77
2022-08-20T19:37:35.203Z,20.55
2022-08-20T19:40:01.515Z,20.62
2022-08-20T19:42:40.638Z,20.60
2022-08-20T19:45:16.082Z,20.67
2022-08-20T19:47:57.150Z,20.67
2022-08-20T19:50:40.098Z,20.49
2022-08-20T19:53:15.175Z,20.12
2022-08-20T19:55:43.006Z,19.90
2022-08-20T19:58:26.080Z,20.16
2022-08-20T20:00:55.846Z,20.35
2022-08-20T20:03:34.414Z,20.32
2022-08-20T20:06:18.177Z,20.25
2022-08-20T20:08:54.787Z,19.97
2022-08-20T20:11:36.751Z,19.65
2022-08-20T20:14:09.944Z,19.43
2022-08-20T20:16:39.858Z,19.34
2022-08-20T20:19:26.279Z,19.28
2022-08-20T20:22:08.472Z,19.16
2022-08-20T20:24:50.972Z,19.07
2022-08-20T20:27:22.836Z,19.07
2022-08-20T20:29:59.161Z,18.93
2022-08-20T20:32:27.970Z,19.12
2022-08-20T20:34:59.657Z,19.00
2022-08-20T20:37:49.980Z,19.11
2022-08-20T20:40:30.941Z,19.31
2022-08-20T20:43:12.143Z,19.33
2022-08-20T20:45:47.088Z,19.27
2022-08-20T20:48:18.408Z,19.52
2022-08-20T20:50:48.324Z,19.61
2022-08-20T20:53:32.305Z,19.47
2022-08-20T20:56:40.030Z,19.53
2022-08-20T20:59:09.989Z,19.28
2022-08-20T21:01:49.605Z,19.48
2022-08-20T21:04:23.241Z,19.35
2022-08-20T21:06:53.510Z,19.27
2022-08-20T21:09:21.995Z,19.15
2022-08-20T21:11:49.842Z,19.36
2022-08-20T21:14:18.635Z,19.54
2022-08-20T21:16:46.189Z,19.80
2022-08-20T21:19:14.102Z,19.66
2022-08-20T21:21:43.061Z,19.51
2022-08-20T21:24:10.960Z,19.47
2022-08-20T21:26:39.606Z,19.53
2022-08-20T21:29:09.623Z,19.59
2022-08-20T21:31:43.719Z,19.54
2022-08-20T21:34:14.172Z,19.49
2022-08-20T21:36:41.951Z,18.76
2022-08-20T21:39:09.725Z,18.28
2022-08-20T21:41:37.972Z,18.38
2022-08-20T21:44:17.969Z,18.29
2022-08-20T21:46:51.084Z,18.20
2022-08-20T21:49:20.039Z,17.98
2022-08-20T21:51:49.980Z,17.80
2022-08-20T21:54:18.366Z,17.78
2022-08-20T21:56:52.793Z,17.87
2022-08-20T21:59:22.429Z,18.03
2022-08-20T22:01:50.602Z,18.13
2022-08-20T22:04:18.736Z,18.32
2022-08-20T22:06:46.681Z,18.47
2022-08-20T22:09:14.595Z,18.72
2022-08-20T22:11:42.229Z,18.68
2022-08-20T22:14:11.780Z,18.82
2022-08-20T22:16:39.208Z,18.90
2022-08-20T22:19:16.242Z,19.04
2022-08-20T22:21:44.313Z,19.22
2022-08-20T22:24:13.493Z,18.91
2022-08-20T22:26:42.079Z,19.01
2022-08-20T22:29:11.848Z,19.18
2022-08-20T22:31:42.977Z,19.17
2022-08-20T22:34:13.581Z,18.99
2022-08-20T22:36:41.768Z,19.03
2022-08-20T22:39:09.746Z,19.16
2022-08-20T22:41:37.746Z,19.25
2022-08-20T22:44:05.100Z,19.18
2022-08-20T22:46:44.969Z,18.80
2022-08-20T22:49:22.520Z,18.50
2022-08-20T22:51:49.825Z,18.61
2022-08-20T22:54:21.055Z,18.97
2022-08-20T22:56:48.368Z,19.00
2022-08-20T22:59:19.806Z,18.83
2022-08-20T23:01:47.376Z,18.94
2022-08-20T23:04:22.178Z,18.97
2022-08-20T23:06:49.924Z,18.98
2022-08-20T23:09:20.953Z,18.98
2022-08-20T23:11:49.178Z,19.10
2022-08-20T23:14:17.066Z,19.37
2022-08-20T23:16:47.464Z,19.21
2022-08-20T23:19:23.219Z,19.00
2022-08-20T23:21:52.119Z,18.92
2022-08-20T23:24:19.765Z,19.14
2022-08-20T23:26:52.747Z,18.95
2022-08-20T23:29:25.895Z,18.88
2022-08-20T23:31:55.997Z,18.87
2022-08-20T23:34:25.218Z,18.92
2022-08-20T23:36:52.714Z,18.84
2022-08-20T23:39:20.366Z,18.89
2022-08-20T23:41:48.312Z,19.01
2022-08-20T23:44:25.805Z,19.15
2022-08-20T23:46:57.752Z,19.10
2022-08-20T23:49:25.722Z,18.95
2022-08-20T23:51:53.138Z,18.87
2022-08-20T23:54:21.053Z,18.94
2022-08-20T23:56:48.391Z,18.82
2022-08-20T23:59:15.648Z,18.77
